createdAt,value
2019-04-28T00:00:35.421Z,86.26
2019-04-28T00:03:04.189Z,85.97
2019-04-28T00:05:33.262Z,85.83
2019-04-28T00:08:01.973Z,86.68
2019-04-28T00:10:32.075Z,86.37
2019-04-28T00:13:01.053Z,86.38
2019-04-28T00:15:30.818Z,86.77
2019-04-28T00:18:01.889Z,87.48
2019-04-28T00:21:02.813Z,87.99
2019-04-28T00:23:40.187Z,89.49
2019-04-28T00:26:17.588Z,89.41
2019-04-28T00:28:46.278Z,88.78
2019-04-28T00:31:14.988Z,88.68
2019-04-28T00:33:43.708Z,90.58
2019-04-28T00:36:12.741Z,91.22
2019-04-28T00:38:41.763Z,90.94
2019-04-28T00:41:10.970Z,91.83
2019-04-28T00:43:41.686Z,92.68
2019-04-28T00:46:11.025Z,92.45
2019-04-28T00:48:40.990Z,92.26
2019-04-28T00:51:11.493Z,92.51
2019-04-28T00:53:40.888Z,93.71
2019-04-28T00:56:11.747Z,94.01
2019-04-28T00:58:41.725Z,94.28
2019-04-28T01:01:13.637Z,94.13
2019-04-28T01:03:42.337Z,93.86
2019-04-28T01:06:11.593Z,93.85
2019-04-28T01:08:41.921Z,93.93
2019-04-28T01:11:11.743Z,93.98
2019-04-28T01:13:41.965Z,93.76
2019-04-28T01:16:20.580Z,94.69
2019-04-28T01:18:56.767Z,94.38
2019-04-28T01:21:30.006Z,94.56
2019-04-28T01:23:59.843Z,94.61
2019-04-28T01:26:29.964Z,94.60
2019-04-28T01:28:59.676Z,94.75
2019-04-28T01:31:49.410Z,95.06
2019-04-28T01:34:20.615Z,94.96
2019-04-28T01:36:51.592Z,95.17
2019-04-28T01:39:20.168Z,95.27
2019-04-28T01:41:49.649Z,95.08
2019-04-28T01:44:19.840Z,95.06
2019-04-28T01:46:49.624Z,95.06
2019-04-28T01:49:19.565Z,95.39
2019-04-28T01:51:57.896Z,95.32
2019-04-28T01:54:26.714Z,95.27
2019-04-28T01:56:55.454Z,95.13
2019-04-28T01:59:24.235Z,95.12
2019-04-28T02:01:53.174Z,95.33
2019-04-28T02:04:21.915Z,95.51
2019-04-28T02:06:50.624Z,95.35
2019-04-28T02:09:19.605Z,95.54
2019-04-28T02:11:49.773Z,95.81
2019-04-28T02:14:19.574Z,96.25
2019-04-28T02:16:50.311Z,96.40
2019-04-28T02:19:20.356Z,96.39
2019-04-28T02:21:59.392Z,96.65
2019-04-28T02:24:28.254Z,96.62
2019-04-28T02:26:57.101Z,96.43
2019-04-28T02:29:25.848Z,96.33
2019-04-28T02:31:54.524Z,96.00
2019-04-28T02:34:23.207Z,96.05
2019-04-28T02:36:53.795Z,95.88
2019-04-28T02:39:22.578Z,96.29
2019-04-28T02:41:51.415Z,96.04
2019-04-28T02:44:23.446Z,96.47
2019-04-28T02:46:50.929Z,96.41
2019-04-28T02:49:25.117Z,96.38
2019-04-28T02:52:07.240Z,96.27
2019-04-28T02:54:35.918Z,96.46
2019-04-28T02:57:04.685Z,96.25
2019-04-28T02:59:33.355Z,95.65
2019-04-28T03:02:02.093Z,95.46
2019-04-28T03:04:31.031Z,95.16
2019-04-28T03:07:01.362Z,95.22
2019-04-28T03:09:30.742Z,95.69
2019-04-28T03:12:01.415Z,96.18
2019-04-28T03:14:30.683Z,96.23
2019-04-28T03:17:00.821Z,95.94
2019-04-28T03:19:33.633Z,96.33
2019-04-28T03:22:01.324Z,96.59
2019-04-28T03:24:31.604Z,96.70
2019-04-28T03:27:11.911Z,96.52
2019-04-28T03:29:50.435Z,96.31
2019-04-28T03:32:36.641Z,96.37
2019-04-28T03:34:54.986Z,96.46
2019-04-28T03:37:24.161Z,96.52
2019-04-28T03:39:53.251Z,96.48
2019-04-28T03:42:22.352Z,96.37
2019-04-28T03:44:51.489Z,96.51
2019-04-28T03:47:21.042Z,96.18
2019-04-28T03:49:50.811Z,96.18
2019-04-28T03:52:21.224Z,96.64
2019-04-28T03:54:51.088Z,97.05
2019-04-28T03:57:21.484Z,97.10
2019-04-28T03:59:51.363Z,97.03
2019-04-28T04:02:23.358Z,97.19
2019-04-28T04:04:52.496Z,97.18
2019-04-28T04:07:21.818Z,97.51
2019-04-28T04:10:12.567Z,97.48
2019-04-28T04:13:01.081Z,97.65
2019-04-28T04:15:55.281Z,97.54
2019-04-28T04:18:36.653Z,97.30
2019-04-28T04:21:05.368Z,97.10
2019-04-28T04:23:34.026Z,97.29
2019-04-28T04:26:02.702Z,97.59
2019-04-28T04:28:31.377Z,97.99
2019-04-28T04:31:02.957Z,97.93
2019-04-28T04:33:31.156Z,97.73
2019-04-28T04:36:01.608Z,97.19
2019-04-28T04:38:31.214Z,97.17
2019-04-28T04:41:01.420Z,97.08
2019-04-28T04:43:31.110Z,96.60
2019-04-28T04:46:15.072Z,96.66
2019-04-28T04:48:44.211Z,96.56
2019-04-28T04:51:12.976Z,96.07
2019-04-28T04:53:41.739Z,95.89
2019-04-28T04:56:10.612Z,95.59
2019-04-28T04:58:40.680Z,94.99
2019-04-28T05:01:20.352Z,94.07
2019-04-28T05:03:50.609Z,93.95
2019-04-28T05:06:44.270Z,93.55
2019-04-28T05:09:13.000Z,93.15
2019-04-28T05:11:41.682Z,92.72
2019-04-28T05:14:12.081Z,92.29
2019-04-28T05:16:40.945Z,90.66
2019-04-28T05:19:10.352Z,90.39
2019-04-28T05:21:40.481Z,90.75
2019-04-28T05:24:25.839Z,88.96
2019-04-28T05:26:54.528Z,88.80
2019-04-28T05:29:26.946Z,87.24
2019-04-28T05:31:54.733Z,85.98
2019-04-28T05:34:24.582Z,84.52
2019-04-28T05:36:53.407Z,85.48
2019-04-28T05:39:22.103Z,84.63
2019-04-28T05:41:50.757Z,84.32
2019-04-28T05:44:20.183Z,82.04
2019-04-28T05:46:50.619Z,81.95
2019-04-28T05:49:29.635Z,81.59
2019-04-28T05:52:02.206Z,80.53
2019-04-28T05:54:47.064Z,78.66
2019-04-28T05:57:21.103Z,78.88
2019-04-28T06:00:10.690Z,79.72
2019-04-28T06:02:55.513Z,75.94
2019-04-28T06:05:12.927Z,76.25
2019-04-28T06:07:49.903Z,76.65
2019-04-28T06:10:20.156Z,75.64
2019-04-28T06:12:49.577Z,73.94
2019-04-28T06:15:20.353Z,75.44
2019-04-28T06:17:49.825Z,70.66
2019-04-28T06:20:20.106Z,72.80
2019-04-28T06:22:48.933Z,73.52
2019-04-28T06:25:17.589Z,72.51
2019-04-28T06:27:46.265Z,71.98
2019-04-28T06:30:15.363Z,72.37
2019-04-28T06:32:44.023Z,73.74
2019-04-28T06:35:12.858Z,72.87
2019-04-28T06:37:41.535Z,73.26
2019-04-28T06:40:10.448Z,74.00
2019-04-28T06:42:39.145Z,71.85
2019-04-28T06:45:07.961Z,71.09
2019-04-28T06:47:36.624Z,72.83
2019-04-28T06:50:05.788Z,70.85
2019-04-28T06:52:34.440Z,70.95
2019-04-28T06:55:03.186Z,69.69
2019-04-28T06:57:31.872Z,72.10
2019-04-28T07:00:00.534Z,70.60
2019-04-28T07:02:29.227Z,70.13
2019-04-28T07:05:02.347Z,71.71
2019-04-28T07:07:28.353Z,69.60
2019-04-28T07:09:57.044Z,71.21
2019-04-28T07:12:25.705Z,68.73
2019-04-28T07:14:54.368Z,70.98
2019-04-28T07:17:23.046Z,70.03
2019-04-28T07:20:00.054Z,69.04
2019-04-28T07:22:29.885Z,70.78
2019-04-28T07:24:58.566Z,70.43
2019-04-28T07:27:27.227Z,69.40
2019-04-28T07:29:55.914Z,70.07
2019-04-28T07:32:24.602Z,68.83
2019-04-28T07:34:53.260Z,69.67
2019-04-28T07:37:21.944Z,69.54
2019-04-28T07:39:50.607Z,68.85
2019-04-28T07:42:19.302Z,68.85
2019-04-28T07:44:47.952Z,68.23
2019-04-28T07:47:16.642Z,66.88
2019-04-28T07:49:45.300Z,67.23
2019-04-28T07:52:23.259Z,66.40
2019-04-28T07:54:51.998Z,63.92
2019-04-28T07:57:20.675Z,64.18
2019-04-28T07:59:49.390Z,60.51
2019-04-28T08:02:18.060Z,60.31
2019-04-28T08:04:46.729Z,63.22
2019-04-28T08:07:15.420Z,60.45
2019-04-28T08:09:44.086Z,60.01
2019-04-28T08:12:12.820Z,59.75
2019-04-28T08:14:41.513Z,58.11
2019-04-28T08:17:10.201Z,59.82
2019-04-28T08:19:38.887Z,64.55
2019-04-28T08:22:07.732Z,67.23
2019-04-28T08:24:36.393Z,72.11
2019-04-28T08:27:05.151Z,76.82
2019-04-28T08:29:33.846Z,76.13
2019-04-28T08:32:10.822Z,76.00
2019-04-28T08:34:39.602Z,72.61
2019-04-28T08:37:08.349Z,71.83
2019-04-28T08:39:37.011Z,71.63
2019-04-28T08:42:05.845Z,71.12
2019-04-28T08:44:34.625Z,71.06
2019-04-28T08:47:03.366Z,71.01
2019-04-28T08:49:32.036Z,69.54
2019-04-28T08:52:00.817Z,68.58
2019-04-28T08:54:29.623Z,66.48
2019-04-28T08:56:58.298Z,67.83
2019-04-28T08:59:26.997Z,65.19
2019-04-28T09:01:55.672Z,62.90
2019-04-28T09:04:24.328Z,60.83
2019-04-28T09:06:53.099Z,60.29
2019-04-28T09:09:21.782Z,61.54
2019-04-28T09:11:50.541Z,59.83
2019-04-28T09:14:19.241Z,60.21
2019-04-28T09:16:47.937Z,60.36
2019-04-28T09:19:16.610Z,61.41
2019-04-28T09:21:45.284Z,60.77
2019-04-28T09:24:14.174Z,61.11
2019-04-28T09:26:42.884Z,61.82
2019-04-28T09:29:11.555Z,61.98
2019-04-28T09:31:40.238Z,60.04
2019-04-28T09:34:08.906Z,58.74
2019-04-28T09:36:37.604Z,54.17
2019-04-28T09:39:08.788Z,48.01
2019-04-28T09:41:39.111Z,45.64
2019-04-28T09:44:16.044Z,43.62
2019-04-28T09:46:44.817Z,42.84
2019-04-28T09:49:13.476Z,38.94
2019-04-28T09:51:42.169Z,36.31
2019-04-28T09:54:10.820Z,37.45
2019-04-28T09:56:39.587Z,37.85
2019-04-28T09:59:08.340Z,36.69
2019-04-28T10:01:37.027Z,37.55
2019-04-28T10:04:05.697Z,40.75
2019-04-28T10:06:34.461Z,37.78
2019-04-28T10:09:03.171Z,37.02
2019-04-28T10:11:31.847Z,37.13
2019-04-28T10:14:00.514Z,34.04
2019-04-28T10:16:29.178Z,35.23
2019-04-28T10:18:57.871Z,34.36
2019-04-28T10:21:26.553Z,33.13
2019-04-28T10:23:55.217Z,35.09
2019-04-28T10:26:23.991Z,35.62
2019-04-28T10:28:52.724Z,37.42
2019-04-28T10:31:21.398Z,36.41
2019-04-28T10:33:54.128Z,41.64
2019-04-28T10:36:23.070Z,39.40
2019-04-28T10:38:53.125Z,37.35
2019-04-28T10:41:34.889Z,35.24
2019-04-28T10:44:03.558Z,39.82
2019-04-28T10:46:32.230Z,43.98
2019-04-28T10:49:00.906Z,44.30
2019-04-28T10:51:29.596Z,50.06
2019-04-28T10:53:58.266Z,53.40
2019-04-28T10:56:26.934Z,56.52
2019-04-28T10:58:56.104Z,58.73
2019-04-28T11:01:24.774Z,61.47
2019-04-28T11:03:55.441Z,65.14
2019-04-28T11:06:24.228Z,64.81
2019-04-28T11:09:14.327Z,69.59
2019-04-28T11:11:43.017Z,73.33
2019-04-28T11:14:14.130Z,76.66
2019-04-28T11:16:42.214Z,75.19
2019-04-28T11:19:11.685Z,78.77
2019-04-28T11:21:40.385Z,75.84
2019-04-28T11:24:09.092Z,74.10
2019-04-28T11:26:37.761Z,76.66
2019-04-28T11:29:06.893Z,77.24
2019-04-28T11:31:35.578Z,76.61
2019-04-28T11:34:29.300Z,75.33
2019-04-28T11:36:57.171Z,70.67
2019-04-28T11:39:31.128Z,71.50
2019-04-28T11:41:59.824Z,71.44
2019-04-28T11:44:28.484Z,66.40
2019-04-28T11:46:57.426Z,63.53
2019-04-28T11:49:26.244Z,61.91
2019-04-28T11:51:54.992Z,61.65
2019-04-28T11:54:24.194Z,58.19
2019-04-28T11:56:52.986Z,55.47
2019-04-28T11:59:21.637Z,53.74
2019-04-28T12:01:50.399Z,57.53
2019-04-28T12:04:20.260Z,59.21
2019-04-28T12:06:48.920Z,62.28
2019-04-28T12:09:34.555Z,67.81
2019-04-28T12:12:04.538Z,70.87
2019-04-28T12:14:38.628Z,65.89
2019-04-28T12:17:26.906Z,67.57
2019-04-28T12:19:59.781Z,64.60
2019-04-28T12:22:28.464Z,63.50
2019-04-28T12:24:57.131Z,50.24
2019-04-28T12:27:25.858Z,39.59
2019-04-28T12:29:55.973Z,43.98
2019-04-28T12:32:24.710Z,44.85
2019-04-28T12:34:53.397Z,52.29
2019-04-28T12:37:22.133Z,63.13
2019-04-28T12:39:50.794Z,65.83
2019-04-28T12:42:19.481Z,66.28
2019-04-28T12:44:48.143Z,65.29
2019-04-28T12:47:16.796Z,64.52
2019-04-28T12:49:53.593Z,65.11
2019-04-28T12:52:22.255Z,65.69
2019-04-28T12:54:50.996Z,62.39
2019-04-28T12:57:19.697Z,63.46
2019-04-28T12:59:53.630Z,65.74
2019-04-28T13:02:35.034Z,66.18
2019-04-28T13:05:07.945Z,66.02
2019-04-28T13:07:36.635Z,65.23
2019-04-28T13:10:05.815Z,60.51
2019-04-28T13:12:34.504Z,58.48
2019-04-28T13:15:03.282Z,58.34
2019-04-28T13:17:31.941Z,57.65
2019-04-28T13:20:00.627Z,53.26
2019-04-28T13:22:29.308Z,45.16
2019-04-28T13:24:57.966Z,46.57
2019-04-28T13:27:26.757Z,43.80
2019-04-28T13:29:55.417Z,44.51
2019-04-28T13:32:24.078Z,43.75
2019-04-28T13:34:52.770Z,42.44
2019-04-28T13:37:21.433Z,39.65
2019-04-28T13:39:57.293Z,29.24
2019-04-28T13:42:25.926Z,24.17
2019-04-28T13:45:01.817Z,22.09
2019-04-28T13:47:30.546Z,21.55
2019-04-28T13:50:18.839Z,21.08
2019-04-28T13:52:47.520Z,24.50
2019-04-28T13:55:31.324Z,27.86
2019-04-28T13:58:01.428Z,29.27
2019-04-28T14:00:40.217Z,33.08
2019-04-28T14:03:21.943Z,38.14
2019-04-28T14:05:55.722Z,39.63
2019-04-28T14:08:24.440Z,40.22
2019-04-28T14:10:53.137Z,40.34
2019-04-28T14:13:21.879Z,41.90
2019-04-28T14:15:50.544Z,43.75
2019-04-28T14:18:19.250Z,47.49
2019-04-28T14:20:47.951Z,47.85
2019-04-28T14:23:16.607Z,49.22
2019-04-28T14:25:45.349Z,50.74
2019-04-28T14:28:14.010Z,52.01
2019-04-28T14:30:42.674Z,51.35
2019-04-28T14:33:11.384Z,51.08
2019-04-28T14:35:40.130Z,50.86
2019-04-28T14:38:08.848Z,49.69
2019-04-28T14:40:37.489Z,49.63
2019-04-28T14:43:06.194Z,49.56
2019-04-28T14:45:34.907Z,46.75
2019-04-28T14:48:03.658Z,44.99
2019-04-28T14:50:32.383Z,41.90
2019-04-28T14:53:01.024Z,38.96
2019-04-28T14:55:29.683Z,38.70
2019-04-28T14:57:58.389Z,37.61
2019-04-28T15:00:35.085Z,38.49
2019-04-28T15:03:07.186Z,38.34
2019-04-28T15:05:48.474Z,39.23
2019-04-28T15:08:42.625Z,39.02
2019-04-28T15:11:16.864Z,40.40
2019-04-28T15:13:55.500Z,38.12
2019-04-28T15:16:24.425Z,37.20
2019-04-28T15:18:53.108Z,36.84
2019-04-28T15:21:21.776Z,37.09
2019-04-28T15:23:50.433Z,40.36
2019-04-28T15:26:19.123Z,43.67
2019-04-28T15:28:47.780Z,44.90
2019-04-28T15:31:16.443Z,43.85
2019-04-28T15:33:45.527Z,43.85
2019-04-28T15:36:14.226Z,44.67
2019-04-28T15:38:42.919Z,44.18
2019-04-28T15:41:21.403Z,47.08
2019-04-28T15:43:42.117Z,48.86
2019-04-28T15:46:10.874Z,50.24
2019-04-28T15:48:39.529Z,51.92
2019-04-28T15:51:08.258Z,51.26
2019-04-28T15:53:37.015Z,49.22
2019-04-28T15:56:10.987Z,42.72
2019-04-28T15:58:40.176Z,32.02
2019-04-28T16:01:09.412Z,26.89
2019-04-28T16:03:38.100Z,26.89
2019-04-28T16:06:06.897Z,27.53
2019-04-28T16:08:35.558Z,26.18
2019-04-28T16:11:04.295Z,28.52
2019-04-28T16:13:32.998Z,35.40
2019-04-28T16:16:01.662Z,34.69
2019-04-28T16:18:30.319Z,30.47
2019-04-28T16:20:58.995Z,33.05
2019-04-28T16:23:27.683Z,33.05
2019-04-28T16:25:56.388Z,36.37
2019-04-28T16:28:25.156Z,39.87
2019-04-28T16:30:53.828Z,41.70
2019-04-28T16:33:22.513Z,44.82
2019-04-28T16:35:51.177Z,40.35
2019-04-28T16:38:19.850Z,40.60
2019-04-28T16:40:48.532Z,45.60
2019-04-28T16:43:17.220Z,44.45
2019-04-28T16:45:45.880Z,45.16
2019-04-28T16:48:14.636Z,45.58
2019-04-28T16:50:43.306Z,45.09
2019-04-28T16:53:12.033Z,40.25
2019-04-28T16:56:00.784Z,33.98
2019-04-28T16:58:41.009Z,34.43
2019-04-28T17:01:36.254Z,35.93
2019-04-28T17:04:05.706Z,33.94
2019-04-28T17:06:34.395Z,30.15
2019-04-28T17:09:03.330Z,30.15
2019-04-28T17:11:32.012Z,28.80
2019-04-28T17:14:00.676Z,33.63
2019-04-28T17:16:29.369Z,33.63
2019-04-28T17:18:58.049Z,34.68
2019-04-28T17:21:26.740Z,36.55
2019-04-28T17:23:55.431Z,37.54
2019-04-28T17:26:24.133Z,37.71
2019-04-28T17:28:52.816Z,38.14
2019-04-28T17:31:21.559Z,37.56
2019-04-28T17:33:50.321Z,39.54
2019-04-28T17:36:18.981Z,41.28
2019-04-28T17:38:47.644Z,44.54
2019-04-28T17:41:16.410Z,47.33
2019-04-28T17:43:45.089Z,48.22
2019-04-28T17:46:13.773Z,48.29
2019-04-28T17:48:47.790Z,49.65
2019-04-28T17:51:16.447Z,52.65
2019-04-28T17:53:45.108Z,54.13
2019-04-28T17:56:13.796Z,55.01
2019-04-28T17:58:42.454Z,55.64
2019-04-28T18:01:26.278Z,58.52
2019-04-28T18:04:05.169Z,59.69
2019-04-28T18:06:34.769Z,60.76
2019-04-28T18:09:05.414Z,63.19
2019-04-28T18:11:34.164Z,67.42
2019-04-28T18:14:04.199Z,71.39
2019-04-28T18:16:55.090Z,76.13
2019-04-28T18:19:23.943Z,78.63
2019-04-28T18:21:52.707Z,80.25
2019-04-28T18:24:21.417Z,81.19
2019-04-28T18:26:50.079Z,82.27
2019-04-28T18:29:18.735Z,83.21
2019-04-28T18:31:55.985Z,84.28
2019-04-28T18:34:36.983Z,84.64
2019-04-28T18:37:43.594Z,84.68
2019-04-28T18:40:23.391Z,84.96
2019-04-28T18:43:20.218Z,85.79
2019-04-28T18:45:48.904Z,86.91
2019-04-28T18:48:17.560Z,88.59
2019-04-28T18:50:46.219Z,88.91
2019-04-28T18:53:14.912Z,89.41
2019-04-28T18:55:43.568Z,89.87
2019-04-28T18:58:12.519Z,89.82
2019-04-28T19:00:44.520Z,91.72
2019-04-28T19:03:13.220Z,91.25
2019-04-28T19:05:43.539Z,91.83
2019-04-28T19:08:19.393Z,91.44
2019-04-28T19:11:07.030Z,92.72
2019-04-28T19:13:39.663Z,93.61
2019-04-28T19:16:42.480Z,93.86
2019-04-28T19:19:11.595Z,93.45
2019-04-28T19:21:41.904Z,93.63
2019-04-28T19:24:10.600Z,93.92
2019-04-28T19:26:39.292Z,93.65
2019-04-28T19:29:07.962Z,93.04
2019-04-28T19:31:36.654Z,93.08
2019-04-28T19:34:05.464Z,93.44
2019-04-28T19:36:34.203Z,94.18
2019-04-28T19:39:03.792Z,93.86
2019-04-28T19:41:32.537Z,93.64
2019-04-28T19:44:01.209Z,94.49
2019-04-28T19:46:29.905Z,94.56
2019-04-28T19:48:58.564Z,94.31
2019-04-28T19:51:31.879Z,94.89
2019-04-28T19:53:58.009Z,95.73
2019-04-28T19:56:54.641Z,96.28
2019-04-28T19:59:42.372Z,96.55
2019-04-28T20:02:11.117Z,96.64
2019-04-28T20:04:39.836Z,96.52
2019-04-28T20:07:08.495Z,96.39
2019-04-28T20:09:37.158Z,96.35
2019-04-28T20:12:05.820Z,96.40
2019-04-28T20:14:34.511Z,96.29
2019-04-28T20:17:03.187Z,96.45
2019-04-28T20:19:31.878Z,96.63
2019-04-28T20:22:00.540Z,96.74
2019-04-28T20:24:29.227Z,96.97
2019-04-28T20:26:57.950Z,96.94
2019-04-28T20:29:26.608Z,97.17
2019-04-28T20:31:55.274Z,97.29
2019-04-28T20:34:23.970Z,96.83
2019-04-28T20:37:14.585Z,96.77
2019-04-28T20:39:45.243Z,97.41
2019-04-28T20:42:31.887Z,97.83
2019-04-28T20:45:00.563Z,97.90
2019-04-28T20:47:29.225Z,97.77
2019-04-28T20:49:57.917Z,97.87
2019-04-28T20:52:26.575Z,97.56
2019-04-28T20:54:55.240Z,97.15
2019-04-28T20:57:23.938Z,97.42
2019-04-28T20:59:52.624Z,97.46
2019-04-28T21:02:21.285Z,97.63
2019-04-28T21:04:49.957Z,98.19
2019-04-28T21:07:18.665Z,98.49
2019-04-28T21:09:47.404Z,98.44
2019-04-28T21:12:16.013Z,98.29
2019-04-28T21:14:44.701Z,98.52
2019-04-28T21:17:13.368Z,98.59
2019-04-28T21:19:42.032Z,98.62
2019-04-28T21:22:10.716Z,98.59
2019-04-28T21:24:39.396Z,98.76
2019-04-28T21:27:08.126Z,98.88
2019-04-28T21:29:36.803Z,98.79
2019-04-28T21:32:05.454Z,98.86
2019-04-28T21:34:34.134Z,98.86
2019-04-28T21:37:02.797Z,98.91
2019-04-28T21:39:31.489Z,98.96
2019-04-28T21:42:01.625Z,99.13
2019-04-28T21:44:54.322Z,99.35
2019-04-28T21:47:26.326Z,99.48
2019-04-28T21:49:55.171Z,99.54
2019-04-28T21:52:23.838Z,99.60
2019-04-28T21:54:52.496Z,99.57
2019-04-28T21:57:21.197Z,99.64
2019-04-28T21:59:49.856Z,99.69
2019-04-28T22:02:18.526Z,99.71
2019-04-28T22:04:47.322Z,99.67
2019-04-28T22:07:16.315Z,99.60
2019-04-28T22:09:45.080Z,99.65
2019-04-28T22:12:13.753Z,99.81
2019-04-28T22:14:42.421Z,99.82
2019-04-28T22:17:11.119Z,99.69
2019-04-28T22:19:39.804Z,99.53
2019-04-28T22:22:08.473Z,99.38
2019-04-28T22:24:51.561Z,99.34
2019-04-28T22:27:26.441Z,99.70
2019-04-28T22:29:55.142Z,99.86
2019-04-28T22:32:23.805Z,99.82
2019-04-28T22:34:52.474Z,99.76
2019-04-28T22:37:21.165Z,99.82
2019-04-28T22:39:50.154Z,99.90
2019-04-28T22:42:18.852Z,99.99
2019-04-28T22:44:47.528Z,100.00
2019-04-28T22:47:16.202Z,100.00
2019-04-28T22:49:44.911Z,100.00
2019-04-28T22:52:13.590Z,100.00
2019-04-28T22:55:07.562Z,100.00
2019-04-28T22:57:47.178Z,100.00
2019-04-28T23:00:38.859Z,100.00
2019-04-28T23:03:09.680Z,100.00
2019-04-28T23:05:38.365Z,100.00
2019-04-28T23:08:07.152Z,100.00
2019-04-28T23:10:36.251Z,100.00
2019-04-28T23:13:05.022Z,100.00
2019-04-28T23:15:33.871Z,100.00
2019-04-28T23:18:02.540Z,100.00
2019-04-28T23:20:32.933Z,100.00
2019-04-28T23:23:04.218Z,100.00
2019-04-28T23:25:32.992Z,100.00
2019-04-28T23:28:01.677Z,100.00
2019-04-28T23:30:43.189Z,100.00
2019-04-28T23:33:11.928Z,100.00
2019-04-28T23:35:40.594Z,99.99
2019-04-28T23:38:09.286Z,100.00
2019-04-28T23:40:41.219Z,100.00
2019-04-28T23:43:14.779Z,100.00
2019-04-28T23:45:43.454Z,100.00
2019-04-28T23:48:12.134Z,100.00
2019-04-28T23:50:53.063Z,100.00
2019-04-28T23:53:40.806Z,100.00
2019-04-28T23:56:09.475Z,100.00
2019-04-28T23:58:38.147Z,100.00
